sensor_id;sensor_type;location;lat;lon;timestamp;P1;durP1;ratioP1;P2;durP2;ratioP2
21183;SDS011;18176;49.502;11.754;2023-08-08T00:03:15;6.27;;;4.00;;
21183;SDS011;18176;49.502;11.754;2023-08-08T00:07:15;8.47;;;3.47;;
21183;SDS011;18176;49.502;11.754;2023-08-08T00:11:15;7.40;;;3.53;;
21183;SDS011;18176;49.502;11.754;2023-08-08T00:15:18;6.97;;;3.80;;
21183;SDS011;18176;49.502;11.754;2023-08-08T00:19:18;5.23;;;3.80;;
21183;SDS011;18176;49.502;11.754;2023-08-08T00:23:19;4.70;;;3.53;;
21183;SDS011;18176;49.502;11.754;2023-08-08T00:27:19;4.77;;;3.60;;
21183;SDS011;18176;49.502;11.754;2023-08-08T00:31:22;4.53;;;3.30;;
21183;SDS011;18176;49.502;11.754;2023-08-08T00:35:22;6.17;;;4.37;;
21183;SDS011;18176;49.502;11.754;2023-08-08T00:39:23;9.30;;;4.53;;
21183;SDS011;18176;49.502;11.754;2023-08-08T00:43:23;7.63;;;4.23;;
21183;SDS011;18176;49.502;11.754;2023-08-08T00:47:26;7.97;;;4.57;;
21183;SDS011;18176;49.502;11.754;2023-08-08T00:51:27;7.13;;;4.40;;
21183;SDS011;18176;49.502;11.754;2023-08-08T00:55:27;4.67;;;4.07;;
21183;SDS011;18176;49.502;11.754;2023-08-08T00:59:28;7.10;;;4.17;;
21183;SDS011;18176;49.502;11.754;2023-08-08T01:03:31;4.90;;;4.07;;
21183;SDS011;18176;49.502;11.754;2023-08-08T01:07:33;6.17;;;4.53;;
21183;SDS011;18176;49.502;11.754;2023-08-08T01:11:42;7.03;;;4.60;;
21183;SDS011;18176;49.502;11.754;2023-08-08T01:15:46;6.83;;;4.37;;
21183;SDS011;18176;49.502;11.754;2023-08-08T01:19:51;7.20;;;4.50;;
21183;SDS011;18176;49.502;11.754;2023-08-08T01:23:52;7.67;;;4.50;;
21183;SDS011;18176;49.502;11.754;2023-08-08T01:28:02;6.67;;;4.07;;
21183;SDS011;18176;49.502;11.754;2023-08-08T01:32:04;6.07;;;4.13;;
21183;SDS011;18176;49.502;11.754;2023-08-08T01:36:07;6.27;;;3.87;;
21183;SDS011;18176;49.502;11.754;2023-08-08T01:40:19;6.03;;;3.97;;
21183;SDS011;18176;49.502;11.754;2023-08-08T01:44:24;5.23;;;3.90;;
21183;SDS011;18176;49.502;11.754;2023-08-08T01:48:29;5.00;;;3.97;;
21183;SDS011;18176;49.502;11.754;2023-08-08T01:52:30;4.40;;;3.80;;
21183;SDS011;18176;49.502;11.754;2023-08-08T01:56:32;5.90;;;3.77;;
21183;SDS011;18176;49.502;11.754;2023-08-08T02:00:35;4.47;;;3.60;;
21183;SDS011;18176;49.502;11.754;2023-08-08T02:04:37;6.40;;;3.30;;
21183;SDS011;18176;49.502;11.754;2023-08-08T02:08:38;7.90;;;3.53;;
21183;SDS011;18176;49.502;11.754;2023-08-08T02:12:38;5.33;;;3.37;;
21183;SDS011;18176;49.502;11.754;2023-08-08T02:16:42;4.93;;;3.27;;
21183;SDS011;18176;49.502;11.754;2023-08-08T02:20:42;4.77;;;3.37;;
21183;SDS011;18176;49.502;11.754;2023-08-08T02:24:42;5.10;;;3.33;;
21183;SDS011;18176;49.502;11.754;2023-08-08T02:28:43;7.80;;;3.63;;
21183;SDS011;18176;49.502;11.754;2023-08-08T02:32:47;6.17;;;3.80;;
21183;SDS011;18176;49.502;11.754;2023-08-08T02:36:47;7.33;;;3.90;;
21183;SDS011;18176;49.502;11.754;2023-08-08T02:40:48;9.03;;;3.47;;
21183;SDS011;18176;49.502;11.754;2023-08-08T02:44:51;4.17;;;3.30;;
21183;SDS011;18176;49.502;11.754;2023-08-08T02:48:54;4.43;;;2.97;;
21183;SDS011;18176;49.502;11.754;2023-08-08T02:52:54;5.60;;;3.40;;
21183;SDS011;18176;49.502;11.754;2023-08-08T02:57:00;4.57;;;3.90;;
21183;SDS011;18176;49.502;11.754;2023-08-08T03:01:01;4.30;;;3.67;;
21183;SDS011;18176;49.502;11.754;2023-08-08T03:05:04;5.70;;;3.43;;
21183;SDS011;18176;49.502;11.754;2023-08-08T03:09:07;4.70;;;3.63;;
21183;SDS011;18176;49.502;11.754;2023-08-08T03:13:08;3.80;;;3.23;;
21183;SDS011;18176;49.502;11.754;2023-08-08T03:17:10;5.33;;;3.70;;
21183;SDS011;18176;49.502;11.754;2023-08-08T03:21:13;5.97;;;3.70;;
21183;SDS011;18176;49.502;11.754;2023-08-08T03:25:13;4.07;;;3.23;;
21183;SDS011;18176;49.502;11.754;2023-08-08T03:29:14;5.97;;;3.67;;
21183;SDS011;18176;49.502;11.754;2023-08-08T03:33:17;3.97;;;2.90;;
21183;SDS011;18176;49.502;11.754;2023-08-08T03:37:23;3.93;;;3.00;;
21183;SDS011;18176;49.502;11.754;2023-08-08T03:41:23;3.07;;;2.73;;
21183;SDS011;18176;49.502;11.754;2023-08-08T03:45:24;4.17;;;2.90;;
21183;SDS011;18176;49.502;11.754;2023-08-08T03:49:25;4.67;;;3.00;;
21183;SDS011;18176;49.502;11.754;2023-08-08T03:53:28;5.03;;;2.93;;
21183;SDS011;18176;49.502;11.754;2023-08-08T03:57:29;4.43;;;3.10;;
21183;SDS011;18176;49.502;11.754;2023-08-08T04:01:29;3.73;;;2.90;;
21183;SDS011;18176;49.502;11.754;2023-08-08T04:05:30;3.07;;;2.70;;
21183;SDS011;18176;49.502;11.754;2023-08-08T04:09:33;4.97;;;2.90;;
21183;SDS011;18176;49.502;11.754;2023-08-08T04:13:34;3.70;;;2.83;;
21183;SDS011;18176;49.502;11.754;2023-08-08T04:17:34;4.70;;;2.70;;
21183;SDS011;18176;49.502;11.754;2023-08-08T04:21:35;3.07;;;2.63;;
21183;SDS011;18176;49.502;11.754;2023-08-08T04:25:38;2.77;;;2.57;;
21183;SDS011;18176;49.502;11.754;2023-08-08T04:29:39;3.87;;;2.97;;
21183;SDS011;18176;49.502;11.754;2023-08-08T04:33:39;5.30;;;2.80;;
21183;SDS011;18176;49.502;11.754;2023-08-08T04:37:39;3.67;;;2.70;;
21183;SDS011;18176;49.502;11.754;2023-08-08T04:41:42;4.03;;;2.90;;
21183;SDS011;18176;49.502;11.754;2023-08-08T04:45:43;4.20;;;2.70;;
21183;SDS011;18176;49.502;11.754;2023-08-08T04:49:44;4.27;;;2.53;;
21183;SDS011;18176;49.502;11.754;2023-08-08T04:53:44;4.13;;;2.50;;
21183;SDS011;18176;49.502;11.754;2023-08-08T04:57:47;4.47;;;2.57;;
21183;SDS011;18176;49.502;11.754;2023-08-08T05:01:49;3.97;;;2.67;;
21183;SDS011;18176;49.502;11.754;2023-08-08T05:05:50;6.80;;;2.63;;
21183;SDS011;18176;49.502;11.754;2023-08-08T05:09:50;4.00;;;2.30;;
21183;SDS011;18176;49.502;11.754;2023-08-08T05:13:53;2.90;;;2.33;;
21183;SDS011;18176;49.502;11.754;2023-08-08T05:17:54;2.90;;;2.60;;
21183;SDS011;18176;49.502;11.754;2023-08-08T05:21:56;6.50;;;2.40;;
21183;SDS011;18176;49.502;11.754;2023-08-08T05:25:57;4.57;;;2.27;;
21183;SDS011;18176;49.502;11.754;2023-08-08T05:30:00;4.37;;;2.30;;
21183;SDS011;18176;49.502;11.754;2023-08-08T05:34:01;4.17;;;2.80;;
21183;SDS011;18176;49.502;11.754;2023-08-08T05:38:01;3.50;;;2.40;;
21183;SDS011;18176;49.502;11.754;2023-08-08T05:42:02;2.90;;;2.20;;
21183;SDS011;18176;49.502;11.754;2023-08-08T05:46:06;3.03;;;2.27;;
21183;SDS011;18176;49.502;11.754;2023-08-08T05:50:06;3.03;;;2.23;;
21183;SDS011;18176;49.502;11.754;2023-08-08T05:54:08;3.80;;;2.40;;
21183;SDS011;18176;49.502;11.754;2023-08-08T05:58:09;3.83;;;2.47;;
21183;SDS011;18176;49.502;11.754;2023-08-08T06:02:12;4.13;;;2.30;;
21183;SDS011;18176;49.502;11.754;2023-08-08T06:06:12;2.37;;;2.00;;
21183;SDS011;18176;49.502;11.754;2023-08-08T06:10:12;4.93;;;2.67;;
21183;SDS011;18176;49.502;11.754;2023-08-08T06:14:13;6.07;;;2.73;;
21183;SDS011;18176;49.502;11.754;2023-08-08T06:18:16;4.73;;;2.57;;
21183;SDS011;18176;49.502;11.754;2023-08-08T06:22:17;4.53;;;2.50;;
21183;SDS011;18176;49.502;11.754;2023-08-08T06:26:19;3.60;;;2.40;;
21183;SDS011;18176;49.502;11.754;2023-08-08T06:30:20;3.03;;;2.10;;
21183;SDS011;18176;49.502;11.754;2023-08-08T06:34:23;3.37;;;2.10;;
21183;SDS011;18176;49.502;11.754;2023-08-08T06:38:24;6.43;;;2.10;;
21183;SDS011;18176;49.502;11.754;2023-08-08T06:42:24;4.27;;;2.10;;
21183;SDS011;18176;49.502;11.754;2023-08-08T06:46:29;3.97;;;2.13;;
21183;SDS011;18176;49.502;11.754;2023-08-08T06:50:32;3.17;;;2.10;;
21183;SDS011;18176;49.502;11.754;2023-08-08T06:54:33;3.87;;;1.90;;
21183;SDS011;18176;49.502;11.754;2023-08-08T06:58:33;3.83;;;2.10;;
21183;SDS011;18176;49.502;11.754;2023-08-08T07:02:34;4.03;;;2.63;;
21183;SDS011;18176;49.502;11.754;2023-08-08T07:06:37;4.47;;;1.98;;
21183;SDS011;18176;49.502;11.754;2023-08-08T07:10:37;4.30;;;2.42;;
21183;SDS011;18176;49.502;11.754;2023-08-08T07:14:39;2.70;;;1.83;;
21183;SDS011;18176;49.502;11.754;2023-08-08T07:18:39;4.07;;;2.20;;
21183;SDS011;18176;49.502;11.754;2023-08-08T07:22:42;3.83;;;2.20;;
21183;SDS011;18176;49.502;11.754;2023-08-08T07:26:43;3.58;;;1.90;;
21183;SDS011;18176;49.502;11.754;2023-08-08T07:30:43;6.28;;;2.47;;
21183;SDS011;18176;49.502;11.754;2023-08-08T07:34:43;5.20;;;2.08;;
21183;SDS011;18176;49.502;11.754;2023-08-08T07:38:46;3.30;;;2.00;;
21183;SDS011;18176;49.502;11.754;2023-08-08T07:42:47;2.90;;;1.88;;
21183;SDS011;18176;49.502;11.754;2023-08-08T07:46:48;4.32;;;2.20;;
21183;SDS011;18176;49.502;11.754;2023-08-08T07:50:50;2.38;;;1.70;;
21183;SDS011;18176;49.502;11.754;2023-08-08T07:54:53;2.50;;;1.80;;
21183;SDS011;18176;49.502;11.754;2023-08-08T07:58:53;4.88;;;2.10;;
21183;SDS011;18176;49.502;11.754;2023-08-08T08:02:53;16.25;;;2.15;;
21183;SDS011;18176;49.502;11.754;2023-08-08T08:06:54;3.92;;;1.70;;
21183;SDS011;18176;49.502;11.754;2023-08-08T08:10:57;3.00;;;1.73;;
21183;SDS011;18176;49.502;11.754;2023-08-08T08:14:58;2.75;;;1.55;;
21183;SDS011;18176;49.502;11.754;2023-08-08T08:18:58;2.75;;;1.80;;
21183;SDS011;18176;49.502;11.754;2023-08-08T08:22:59;4.20;;;2.00;;
21183;SDS011;18176;49.502;11.754;2023-08-08T08:27:02;2.92;;;1.58;;
21183;SDS011;18176;49.502;11.754;2023-08-08T08:31:05;3.15;;;1.80;;
21183;SDS011;18176;49.502;11.754;2023-08-08T08:35:07;3.42;;;1.60;;
21183;SDS011;18176;49.502;11.754;2023-08-08T08:39:09;3.67;;;1.60;;
21183;SDS011;18176;49.502;11.754;2023-08-08T08:43:13;2.80;;;1.60;;
21183;SDS011;18176;49.502;11.754;2023-08-08T08:47:16;6.60;;;1.40;;
21183;SDS011;18176;49.502;11.754;2023-08-08T08:51:20;3.88;;;1.85;;
21183;SDS011;18176;49.502;11.754;2023-08-08T08:55:21;2.55;;;1.50;;
21183;SDS011;18176;49.502;11.754;2023-08-08T08:59:24;3.88;;;1.38;;
21183;SDS011;18176;49.502;11.754;2023-08-08T09:03:25;1.75;;;1.60;;
21183;SDS011;18176;49.502;11.754;2023-08-08T09:07:25;3.83;;;1.60;;
21183;SDS011;18176;49.502;11.754;2023-08-08T09:11:27;1.63;;;1.20;;
21183;SDS011;18176;49.502;11.754;2023-08-08T09:15:32;3.42;;;1.40;;
21183;SDS011;18176;49.502;11.754;2023-08-08T09:19:34;5.13;;;1.60;;
21183;SDS011;18176;49.502;11.754;2023-08-08T09:23:34;4.00;;;1.27;;
21183;SDS011;18176;49.502;11.754;2023-08-08T09:27:40;4.13;;;1.70;;
21183;SDS011;18176;49.502;11.754;2023-08-08T09:31:44;1.95;;;1.30;;
21183;SDS011;18176;49.502;11.754;2023-08-08T09:35:46;3.78;;;1.50;;
21183;SDS011;18176;49.502;11.754;2023-08-08T09:39:55;5.20;;;1.60;;
21183;SDS011;18176;49.502;11.754;2023-08-08T09:43:58;3.78;;;1.35;;
21183;SDS011;18176;49.502;11.754;2023-08-08T09:48:02;3.70;;;1.50;;
21183;SDS011;18176;49.502;11.754;2023-08-08T09:52:05;1.63;;;1.30;;
21183;SDS011;18176;49.502;11.754;2023-08-08T09:56:06;3.45;;;1.50;;
21183;SDS011;18176;49.502;11.754;2023-08-08T10:00:08;2.90;;;1.20;;
21183;SDS011;18176;49.502;11.754;2023-08-08T10:04:15;2.42;;;1.23;;
21183;SDS011;18176;49.502;11.754;2023-08-08T10:08:17;2.67;;;1.60;;
21183;SDS011;18176;49.502;11.754;2023-08-08T10:12:18;1.27;;;1.10;;
21183;SDS011;18176;49.502;11.754;2023-08-08T10:16:19;3.15;;;1.52;;
21183;SDS011;18176;49.502;11.754;2023-08-08T10:20:30;2.22;;;1.33;;
21183;SDS011;18176;49.502;11.754;2023-08-08T10:24:32;1.25;;;1.13;;
21183;SDS011;18176;49.502;11.754;2023-08-08T10:28:34;4.78;;;1.20;;
21183;SDS011;18176;49.502;11.754;2023-08-08T10:32:38;2.38;;;1.27;;
21183;SDS011;18176;49.502;11.754;2023-08-08T10:36:48;5.13;;;1.20;;
21183;SDS011;18176;49.502;11.754;2023-08-08T10:40:53;1.80;;;1.05;;
21183;SDS011;18176;49.502;11.754;2023-08-08T10:44:57;1.95;;;1.30;;
21183;SDS011;18176;49.502;11.754;2023-08-08T10:49:01;1.60;;;1.17;;
21183;SDS011;18176;49.502;11.754;2023-08-08T10:53:07;1.80;;;1.20;;
21183;SDS011;18176;49.502;11.754;2023-08-08T10:57:15;2.50;;;1.40;;
21183;SDS011;18176;49.502;11.754;2023-08-08T11:01:16;3.13;;;1.30;;
21183;SDS011;18176;49.502;11.754;2023-08-08T11:05:16;5.05;;;1.20;;
21183;SDS011;18176;49.502;11.754;2023-08-08T11:09:23;3.67;;;2.03;;
21183;SDS011;18176;49.502;11.754;2023-08-08T11:13:24;1.33;;;1.10;;
21183;SDS011;18176;49.502;11.754;2023-08-08T11:17:25;1.90;;;1.30;;
21183;SDS011;18176;49.502;11.754;2023-08-08T11:21:26;2.78;;;1.30;;
21183;SDS011;18176;49.502;11.754;2023-08-08T11:25:32;2.13;;;1.40;;
21183;SDS011;18176;49.502;11.754;2023-08-08T11:29:32;1.35;;;1.25;;
21183;SDS011;18176;49.502;11.754;2023-08-08T11:33:34;3.45;;;1.63;;
21183;SDS011;18176;49.502;11.754;2023-08-08T11:37:34;3.22;;;1.30;;
21183;SDS011;18176;49.502;11.754;2023-08-08T11:41:39;1.42;;;1.05;;
21183;SDS011;18176;49.502;11.754;2023-08-08T11:45:42;4.72;;;1.30;;
21183;SDS011;18176;49.502;11.754;2023-08-08T11:49:43;2.53;;;1.40;;
21183;SDS011;18176;49.502;11.754;2023-08-08T11:53:48;2.97;;;1.30;;
21183;SDS011;18176;49.502;11.754;2023-08-08T11:57:53;2.50;;;1.40;;
21183;SDS011;18176;49.502;11.754;2023-08-08T12:01:58;3.53;;;1.30;;
21183;SDS011;18176;49.502;11.754;2023-08-08T12:06:00;2.58;;;1.13;;
21183;SDS011;18176;49.502;11.754;2023-08-08T12:10:02;3.13;;;1.20;;
21183;SDS011;18176;49.502;11.754;2023-08-08T12:14:09;4.72;;;1.35;;
21183;SDS011;18176;49.502;11.754;2023-08-08T12:18:10;2.05;;;1.20;;
21183;SDS011;18176;49.502;11.754;2023-08-08T12:22:11;3.10;;;1.30;;
21183;SDS011;18176;49.502;11.754;2023-08-08T12:26:11;3.00;;;1.35;;
21183;SDS011;18176;49.502;11.754;2023-08-08T12:30:14;4.80;;;1.50;;
21183;SDS011;18176;49.502;11.754;2023-08-08T12:34:15;1.65;;;1.30;;
21183;SDS011;18176;49.502;11.754;2023-08-08T12:38:15;3.35;;;1.50;;
21183;SDS011;18176;49.502;11.754;2023-08-08T12:42:15;2.80;;;1.50;;
21183;SDS011;18176;49.502;11.754;2023-08-08T12:46:18;1.88;;;1.30;;
21183;SDS011;18176;49.502;11.754;2023-08-08T12:50:20;2.20;;;1.20;;
21183;SDS011;18176;49.502;11.754;2023-08-08T12:54:20;2.58;;;1.27;;
21183;SDS011;18176;49.502;11.754;2023-08-08T12:58:20;3.10;;;1.58;;
21183;SDS011;18176;49.502;11.754;2023-08-08T13:02:25;1.33;;;1.20;;
21183;SDS011;18176;49.502;11.754;2023-08-08T13:06:25;1.70;;;1.45;;
21183;SDS011;18176;49.502;11.754;2023-08-08T13:10:26;2.10;;;1.60;;
21183;SDS011;18176;49.502;11.754;2023-08-08T13:14:27;1.80;;;1.50;;
21183;SDS011;18176;49.502;11.754;2023-08-08T13:18:30;1.85;;;1.27;;
21183;SDS011;18176;49.502;11.754;2023-08-08T13:22:31;1.58;;;1.30;;
21183;SDS011;18176;49.502;11.754;2023-08-08T13:26:32;1.83;;;1.35;;
21183;SDS011;18176;49.502;11.754;2023-08-08T13:30:32;3.50;;;1.60;;
21183;SDS011;18176;49.502;11.754;2023-08-08T13:34:36;3.00;;;1.80;;
21183;SDS011;18176;49.502;11.754;2023-08-08T13:38:36;2.92;;;1.50;;
21183;SDS011;18176;49.502;11.754;2023-08-08T13:42:36;2.00;;;1.52;;
21183;SDS011;18176;49.502;11.754;2023-08-08T13:46:36;1.95;;;1.60;;
21183;SDS011;18176;49.502;11.754;2023-08-08T13:50:40;2.80;;;1.50;;
21183;SDS011;18176;49.502;11.754;2023-08-08T13:54:40;4.72;;;1.77;;
21183;SDS011;18176;49.502;11.754;2023-08-08T13:58:40;1.50;;;1.38;;
21183;SDS011;18176;49.502;11.754;2023-08-08T14:02:40;3.80;;;1.50;;
21183;SDS011;18176;49.502;11.754;2023-08-08T14:06:43;1.60;;;1.40;;
21183;SDS011;18176;49.502;11.754;2023-08-08T14:10:44;2.63;;;1.50;;
21183;SDS011;18176;49.502;11.754;2023-08-08T14:14:46;2.20;;;1.70;;
21183;SDS011;18176;49.502;11.754;2023-08-08T14:18:46;4.75;;;1.55;;
21183;SDS011;18176;49.502;11.754;2023-08-08T14:22:50;1.63;;;1.38;;
21183;SDS011;18176;49.502;11.754;2023-08-08T14:26:50;1.90;;;1.50;;
21183;SDS011;18176;49.502;11.754;2023-08-08T14:30:50;2.53;;;1.50;;
21183;SDS011;18176;49.502;11.754;2023-08-08T14:34:50;2.58;;;1.60;;
21183;SDS011;18176;49.502;11.754;2023-08-08T14:38:56;3.92;;;1.45;;
21183;SDS011;18176;49.502;11.754;2023-08-08T14:42:58;3.30;;;1.63;;
21183;SDS011;18176;49.502;11.754;2023-08-08T14:46:58;2.03;;;1.42;;
21183;SDS011;18176;49.502;11.754;2023-08-08T14:50:59;1.80;;;1.40;;
21183;SDS011;18176;49.502;11.754;2023-08-08T14:55:04;3.22;;;1.50;;
21183;SDS011;18176;49.502;11.754;2023-08-08T14:59:06;1.50;;;1.35;;
21183;SDS011;18176;49.502;11.754;2023-08-08T15:03:06;6.20;;;1.42;;
21183;SDS011;18176;49.502;11.754;2023-08-08T15:07:06;2.55;;;1.40;;
21183;SDS011;18176;49.502;11.754;2023-08-08T15:11:09;3.67;;;1.42;;
21183;SDS011;18176;49.502;11.754;2023-08-08T15:15:10;1.92;;;1.40;;
21183;SDS011;18176;49.502;11.754;2023-08-08T15:19:12;2.00;;;1.65;;
21183;SDS011;18176;49.502;11.754;2023-08-08T15:23:13;4.00;;;1.58;;
21183;SDS011;18176;49.502;11.754;2023-08-08T15:27:16;3.17;;;1.80;;
21183;SDS011;18176;49.502;11.754;2023-08-08T15:31:16;1.60;;;1.48;;
21183;SDS011;18176;49.502;11.754;2023-08-08T15:35:16;2.33;;;1.50;;
21183;SDS011;18176;49.502;11.754;2023-08-08T15:39:17;2.47;;;1.50;;
21183;SDS011;18176;49.502;11.754;2023-08-08T15:43:22;1.80;;;1.40;;
21183;SDS011;18176;49.502;11.754;2023-08-08T15:47:22;2.85;;;1.40;;
21183;SDS011;18176;49.502;11.754;2023-08-08T15:51:22;1.63;;;1.35;;
21183;SDS011;18176;49.502;11.754;2023-08-08T15:55:22;3.42;;;1.80;;
21183;SDS011;18176;49.502;11.754;2023-08-08T15:59:25;3.90;;;1.40;;
21183;SDS011;18176;49.502;11.754;2023-08-08T16:03:27;2.05;;;1.33;;
21183;SDS011;18176;49.502;11.754;2023-08-08T16:07:30;2.58;;;1.50;;
21183;SDS011;18176;49.502;11.754;2023-08-08T16:11:30;1.90;;;1.38;;
21183;SDS011;18176;49.502;11.754;2023-08-08T16:15:33;1.83;;;1.30;;
21183;SDS011;18176;49.502;11.754;2023-08-08T16:19:33;4.05;;;1.33;;
21183;SDS011;18176;49.502;11.754;2023-08-08T16:23:34;2.67;;;1.33;;
21183;SDS011;18176;49.502;11.754;2023-08-08T16:27:34;1.85;;;1.40;;
21183;SDS011;18176;49.502;11.754;2023-08-08T16:31:37;1.73;;;1.20;;
21183;SDS011;18176;49.502;11.754;2023-08-08T16:35:38;1.50;;;1.27;;
21183;SDS011;18176;49.502;11.754;2023-08-08T16:39:38;3.38;;;1.30;;
21183;SDS011;18176;49.502;11.754;2023-08-08T16:43:38;4.15;;;1.30;;
21183;SDS011;18176;49.502;11.754;2023-08-08T16:47:43;3.05;;;1.58;;
21183;SDS011;18176;49.502;11.754;2023-08-08T16:51:44;2.67;;;1.30;;
21183;SDS011;18176;49.502;11.754;2023-08-08T16:55:46;4.60;;;1.35;;
21183;SDS011;18176;49.502;11.754;2023-08-08T16:59:46;3.88;;;1.30;;
21183;SDS011;18176;49.502;11.754;2023-08-08T17:03:50;2.50;;;1.30;;
21183;SDS011;18176;49.502;11.754;2023-08-08T17:07:50;1.92;;;1.38;;
21183;SDS011;18176;49.502;11.754;2023-08-08T17:11:51;1.55;;;1.20;;
21183;SDS011;18176;49.502;11.754;2023-08-08T17:15:52;2.67;;;1.50;;
21183;SDS011;18176;49.502;11.754;2023-08-08T17:19:55;3.47;;;1.48;;
21183;SDS011;18176;49.502;11.754;2023-08-08T17:23:55;1.67;;;1.30;;
21183;SDS011;18176;49.502;11.754;2023-08-08T17:27:56;2.17;;;1.45;;
21183;SDS011;18176;49.502;11.754;2023-08-08T17:31:56;2.28;;;1.63;;
21183;SDS011;18176;49.502;11.754;2023-08-08T17:36:00;3.55;;;1.52;;
21183;SDS011;18176;49.502;11.754;2023-08-08T17:40:01;1.73;;;1.08;;
21183;SDS011;18176;49.502;11.754;2023-08-08T17:44:01;2.92;;;1.50;;
21183;SDS011;18176;49.502;11.754;2023-08-08T17:48:05;3.47;;;1.80;;
21183;SDS011;18176;49.502;11.754;2023-08-08T17:52:08;2.35;;;1.35;;
21183;SDS011;18176;49.502;11.754;2023-08-08T17:56:08;2.65;;;1.38;;
21183;SDS011;18176;49.502;11.754;2023-08-08T18:00:09;5.18;;;1.60;;
21183;SDS011;18176;49.502;11.754;2023-08-08T18:04:11;1.50;;;1.40;;
21183;SDS011;18176;49.502;11.754;2023-08-08T18:08:13;2.95;;;1.50;;
21183;SDS011;18176;49.502;11.754;2023-08-08T18:12:14;2.40;;;1.65;;
21183;SDS011;18176;49.502;11.754;2023-08-08T18:16:14;2.80;;;1.73;;
21183;SDS011;18176;49.502;11.754;2023-08-08T18:20:15;1.98;;;1.50;;
21183;SDS011;18176;49.502;11.754;2023-08-08T18:24:18;1.60;;;1.40;;
21183;SDS011;18176;49.502;11.754;2023-08-08T18:28:18;2.53;;;1.30;;
21183;SDS011;18176;49.502;11.754;2023-08-08T18:32:18;2.25;;;1.30;;
21183;SDS011;18176;49.502;11.754;2023-08-08T18:36:19;3.35;;;1.55;;
21183;SDS011;18176;49.502;11.754;2023-08-08T18:40:22;3.15;;;2.38;;
21183;SDS011;18176;49.502;11.754;2023-08-08T18:44:23;2.35;;;1.88;;
21183;SDS011;18176;49.502;11.754;2023-08-08T18:48:23;2.13;;;1.92;;
21183;SDS011;18176;49.502;11.754;2023-08-08T18:52:23;2.30;;;1.50;;
21183;SDS011;18176;49.502;11.754;2023-08-08T18:56:26;2.03;;;1.48;;
21183;SDS011;18176;49.502;11.754;2023-08-08T19:00:28;2.33;;;1.60;;
21183;SDS011;18176;49.502;11.754;2023-08-08T19:04:29;4.63;;;1.70;;
21183;SDS011;18176;49.502;11.754;2023-08-08T19:08:30;2.97;;;1.42;;
21183;SDS011;18176;49.502;11.754;2023-08-08T19:12:33;2.20;;;1.50;;
21183;SDS011;18176;49.502;11.754;2023-08-08T19:16:33;2.45;;;1.52;;
21183;SDS011;18176;49.502;11.754;2023-08-08T19:20:35;2.58;;;1.58;;
21183;SDS011;18176;49.502;11.754;2023-08-08T19:24:35;1.95;;;1.50;;
21183;SDS011;18176;49.502;11.754;2023-08-08T19:28:38;2.03;;;1.48;;
21183;SDS011;18176;49.502;11.754;2023-08-08T19:32:39;2.75;;;1.50;;
21183;SDS011;18176;49.502;11.754;2023-08-08T19:36:39;1.70;;;1.30;;
21183;SDS011;18176;49.502;11.754;2023-08-08T19:40:39;2.17;;;1.23;;
21183;SDS011;18176;49.502;11.754;2023-08-08T19:44:42;2.55;;;1.50;;
21183;SDS011;18176;49.502;11.754;2023-08-08T19:48:43;2.42;;;1.40;;
21183;SDS011;18176;49.502;11.754;2023-08-08T19:52:44;4.93;;;1.50;;
21183;SDS011;18176;49.502;11.754;2023-08-08T19:56:44;1.83;;;1.40;;
21183;SDS011;18176;49.502;11.754;2023-08-08T20:00:47;1.95;;;1.40;;
21183;SDS011;18176;49.502;11.754;2023-08-08T20:04:48;2.42;;;1.48;;
21183;SDS011;18176;49.502;11.754;2023-08-08T20:08:50;2.03;;;1.52;;
21183;SDS011;18176;49.502;11.754;2023-08-08T20:12:51;1.70;;;1.38;;
21183;SDS011;18176;49.502;11.754;2023-08-08T20:16:54;4.70;;;1.55;;
21183;SDS011;18176;49.502;11.754;2023-08-08T20:20:55;5.72;;;1.35;;
21183;SDS011;18176;49.502;11.754;2023-08-08T20:24:55;2.58;;;1.58;;
21183;SDS011;18176;49.502;11.754;2023-08-08T20:28:56;2.78;;;1.30;;
21183;SDS011;18176;49.502;11.754;2023-08-08T20:33:00;2.53;;;1.50;;
21183;SDS011;18176;49.502;11.754;2023-08-08T20:37:00;3.25;;;1.48;;
21183;SDS011;18176;49.502;11.754;2023-08-08T20:41:03;2.63;;;1.40;;
21183;SDS011;18176;49.502;11.754;2023-08-08T20:45:04;2.33;;;1.50;;
21183;SDS011;18176;49.502;11.754;2023-08-08T20:49:09;4.05;;;1.60;;
21183;SDS011;18176;49.502;11.754;2023-08-08T20:53:09;2.53;;;1.20;;
21183;SDS011;18176;49.502;11.754;2023-08-08T20:57:10;1.98;;;1.30;;
21183;SDS011;18176;49.502;11.754;2023-08-08T21:01:10;2.60;;;1.38;;
21183;SDS011;18176;49.502;11.754;2023-08-08T21:05:14;2.33;;;1.40;;
21183;SDS011;18176;49.502;11.754;2023-08-08T21:09:14;4.20;;;1.42;;
21183;SDS011;18176;49.502;11.754;2023-08-08T21:13:14;3.20;;;1.52;;
21183;SDS011;18176;49.502;11.754;2023-08-08T21:17:15;2.28;;;1.33;;
21183;SDS011;18176;49.502;11.754;2023-08-08T21:21:17;3.05;;;1.40;;
21183;SDS011;18176;49.502;11.754;2023-08-08T21:25:18;2.55;;;1.25;;
21183;SDS011;18176;49.502;11.754;2023-08-08T21:29:18;1.42;;;1.10;;
21183;SDS011;18176;49.502;11.754;2023-08-08T21:33:19;3.33;;;1.65;;
21183;SDS011;18176;49.502;11.754;2023-08-08T21:37:21;4.20;;;1.70;;
21183;SDS011;18176;49.502;11.754;2023-08-08T21:41:22;2.47;;;1.33;;
21183;SDS011;18176;49.502;11.754;2023-08-08T21:45:22;3.58;;;1.70;;
21183;SDS011;18176;49.502;11.754;2023-08-08T21:49:23;3.35;;;1.45;;
21183;SDS011;18176;49.502;11.754;2023-08-08T21:53:26;3.63;;;1.52;;
21183;SDS011;18176;49.502;11.754;2023-08-08T21:57:26;3.17;;;1.38;;
21183;SDS011;18176;49.502;11.754;2023-08-08T22:01:28;1.48;;;1.27;;
21183;SDS011;18176;49.502;11.754;2023-08-08T22:05:28;4.88;;;1.58;;
21183;SDS011;18176;49.502;11.754;2023-08-08T22:09:31;3.95;;;1.60;;
21183;SDS011;18176;49.502;11.754;2023-08-08T22:13:31;4.10;;;1.50;;
21183;SDS011;18176;49.502;11.754;2023-08-08T22:17:31;2.65;;;1.42;;
21183;SDS011;18176;49.502;11.754;2023-08-08T22:21:32;4.05;;;1.60;;
21183;SDS011;18176;49.502;11.754;2023-08-08T22:25:35;3.15;;;1.50;;
21183;SDS011;18176;49.502;11.754;2023-08-08T22:29:36;2.22;;;1.50;;
21183;SDS011;18176;49.502;11.754;2023-08-08T22:33:36;2.92;;;1.58;;
21183;SDS011;18176;49.502;11.754;2023-08-08T22:37:36;2.45;;;1.60;;
21183;SDS011;18176;49.502;11.754;2023-08-08T22:41:39;3.20;;;1.50;;
21183;SDS011;18176;49.502;11.754;2023-08-08T22:45:40;5.03;;;1.60;;
21183;SDS011;18176;49.502;11.754;2023-08-08T22:49:40;2.25;;;1.58;;
21183;SDS011;18176;49.502;11.754;2023-08-08T22:53:41;3.10;;;1.40;;
21183;SDS011;18176;49.502;11.754;2023-08-08T22:57:44;3.30;;;1.55;;
21183;SDS011;18176;49.502;11.754;2023-08-08T23:01:44;3.47;;;1.50;;
21183;SDS011;18176;49.502;11.754;2023-08-08T23:05:45;4.05;;;1.70;;
21183;SDS011;18176;49.502;11.754;2023-08-08T23:09:45;3.75;;;1.40;;
21183;SDS011;18176;49.502;11.754;2023-08-08T23:13:49;4.22;;;1.75;;
21183;SDS011;18176;49.502;11.754;2023-08-08T23:17:49;2.97;;;1.63;;
21183;SDS011;18176;49.502;11.754;2023-08-08T23:21:49;3.65;;;1.70;;
21183;SDS011;18176;49.502;11.754;2023-08-08T23:25:50;4.13;;;1.58;;
21183;SDS011;18176;49.502;11.754;2023-08-08T23:29:55;3.55;;;1.70;;
21183;SDS011;18176;49.502;11.754;2023-08-08T23:33:56;2.42;;;1.70;;
21183;SDS011;18176;49.502;11.754;2023-08-08T23:37:57;1.52;;;1.20;;
21183;SDS011;18176;49.502;11.754;2023-08-08T23:41:58;3.45;;;1.60;;
21183;SDS011;18176;49.502;11.754;2023-08-08T23:46:01;1.98;;;1.58;;
21183;SDS011;18176;49.502;11.754;2023-08-08T23:50:01;2.67;;;1.40;;
21183;SDS011;18176;49.502;11.754;2023-08-08T23:54:02;4.82;;;1.77;;